Time,TemperatureF,DewpointF,PressureIn,WindDirection,WindDirectionDegrees,WindSpeedMPH,WindSpeedGustMPH,Humidity,HourlyPrecipIn,Conditions,Clouds,dailyrainin,SoftwareType,DateUTC
2013-05-03 00:00:00,55.0,45.4,30.27,North,8,1.0,5.0,70,0.00,,CLR,0.00,VWS V14.01,2013-05-03 04:00:00,
2013-05-03 00:01:00,55.0,45.4,30.28,North,355,2.0,2.0,70,0.00,,CLR,0.00,VWS V14.01,2013-05-03 04:01:00,
2013-05-03 00:06:00,54.8,45.6,30.28,NE,35,1.0,4.0,71,0.00,,CLR,0.00,VWS V14.01,2013-05-03 04:06:00,
2013-05-03 00:11:00,54.7,45.5,30.28,NNE,33,4.0,5.0,71,0.00,,CLR,0.00,VWS V14.01,2013-05-03 04:11:00,
2013-05-03 00:16:00,54.5,45.7,30.28,NE,37,3.0,6.0,72,0.00,,CLR,0.00,VWS V14.01,2013-05-03 04:16:00,
2013-05-03 00:21:00,54.3,45.5,30.28,East,96,0.0,6.0,72,0.00,,CLR,0.00,VWS V14.01,2013-05-03 04:21:00,
2013-05-03 00:26:00,54.1,45.7,30.28,NE,36,3.0,6.0,73,0.00,,CLR,0.00,VWS V14.01,2013-05-03 04:26:00,
2013-05-03 00:31:00,54.0,45.5,30.28,NE,39,0.0,2.0,73,0.00,,CLR,0.00,VWS V14.01,2013-05-03 04:31:00,
2013-05-03 00:36:00,53.8,45.4,30.28,NE,39,0.0,2.0,73,0.00,,CLR,0.00,VWS V14.01,2013-05-03 04:36:00,
2013-05-03 00:41:00,53.8,45.4,30.28,NE,38,0.0,2.0,73,0.00,,CLR,0.00,VWS V14.01,2013-05-03 04:41:00,
2013-05-03 00:46:00,53.8,45.4,30.28,NNE,30,0.0,3.0,73,0.00,,CLR,0.00,VWS V14.01,2013-05-03 04:46:00,
2013-05-03 00:51:00,53.8,45.4,30.28,NE,35,4.0,5.0,73,0.00,,CLR,0.00,VWS V14.01,2013-05-03 04:51:00,
2013-05-03 00:56:00,53.4,45.3,30.28,NNE,32,2.0,5.0,74,0.00,,CLR,0.00,VWS V14.01,2013-05-03 04:56:00,
2013-05-03 01:01:00,53.1,45.4,30.28,NNE,29,2.0,3.0,75,0.00,,CLR,0.00,VWS V14.01,2013-05-03 05:01:00,
2013-05-03 01:06:00,52.8,45.1,30.28,NNE,32,2.0,4.0,75,0.00,,CLR,0.00,VWS V14.01,2013-05-03 05:06:00,
2013-05-03 01:11:00,52.5,45.2,30.28,NNE,33,1.0,4.0,76,0.00,,CLR,0.00,VWS V14.01,2013-05-03 05:11:00,
2013-05-03 01:16:00,52.3,45.0,30.27,NE,39,0.0,6.0,76,0.00,,CLR,0.00,VWS V14.01,2013-05-03 05:16:00,
2013-05-03 01:21:00,52.1,45.1,30.28,North,8,0.0,6.0,77,0.00,,CLR,0.00,VWS V14.01,2013-05-03 05:21:00,
2013-05-03 01:26:00,51.9,44.9,30.28,NNE,27,0.0,6.0,77,0.00,,CLR,0.00,VWS V14.01,2013-05-03 05:26:00,
2013-05-03 01:31:00,51.8,44.8,30.28,NE,37,3.0,3.0,77,0.00,,CLR,0.00,VWS V14.01,2013-05-03 05:31:00,
2013-05-03 01:36:00,51.6,44.6,30.28,NNE,24,0.0,5.0,77,0.00,,CLR,0.00,VWS V14.01,2013-05-03 05:36:00,
2013-05-03 01:41:00,51.5,44.9,30.28,NNE,23,0.0,5.0,78,0.00,,CLR,0.00,VWS V14.01,2013-05-03 05:41:00,
2013-05-03 01:46:00,51.3,44.7,30.27,NNE,21,1.0,5.0,78,0.00,,CLR,0.00,VWS V14.01,2013-05-03 05:46:00,
2013-05-03 01:51:00,51.0,44.4,30.28,NNE,22,0.0,5.0,78,0.00,,CLR,0.00,VWS V14.01,2013-05-03 05:51:00,
2013-05-03 01:56:00,50.8,44.5,30.28,ENE,73,1.0,5.0,79,0.00,,CLR,0.00,VWS V14.01,2013-05-03 05:56:00,
2013-05-03 02:01:00,50.8,44.5,30.27,NNE,19,0.0,2.0,79,0.00,,CLR,0.00,VWS V14.01,2013-05-03 06:01:00,
2013-05-03 02:06:00,50.7,44.4,30.27,NNE,31,2.0,3.0,79,0.00,,CLR,0.00,VWS V14.01,2013-05-03 06:06:00,
2013-05-03 02:11:00,50.6,44.7,30.27,NE,35,2.0,3.0,80,0.00,,CLR,0.00,VWS V14.01,2013-05-03 06:11:00,
2013-05-03 02:16:00,50.4,44.5,30.27,North,360,0.0,3.0,80,0.00,,CLR,0.00,VWS V14.01,2013-05-03 06:16:00,
2013-05-03 02:21:00,50.3,44.4,30.27,NE,40,1.0,3.0,80,0.00,,CLR,0.00,VWS V14.01,2013-05-03 06:21:00,
2013-05-03 02:26:00,50.1,44.5,30.27,NE,44,0.0,3.0,81,0.00,,CLR,0.00,VWS V14.01,2013-05-03 06:26:00,
2013-05-03 02:31:00,50.0,44.4,30.27,NE,44,0.0,0.0,81,0.00,,CLR,0.00,VWS V14.01,2013-05-03 06:31:00,
2013-05-03 02:36:00,49.7,44.4,30.27,ENE,68,0.0,0.0,82,0.00,,CLR,0.00,VWS V14.01,2013-05-03 06:36:00,
2013-05-03 02:41:00,49.5,44.2,30.28,East,84,0.0,0.0,82,0.00,,CLR,0.00,VWS V14.01,2013-05-03 06:41:00,
2013-05-03 02:46:00,49.3,44.0,30.28,East,89,0.0,0.0,82,0.00,,CLR,0.00,VWS V14.01,2013-05-03 06:46:00,
2013-05-03 02:51:00,49.0,44.1,30.28,East,89,0.0,0.0,83,0.00,,CLR,0.00,VWS V14.01,2013-05-03 06:51:00,
2013-05-03 02:56:00,49.0,44.1,30.28,NE,47,0.0,0.0,83,0.00,,CLR,0.00,VWS V14.01,2013-05-03 06:56:00,
2013-05-03 03:01:00,48.9,44.0,30.28,NNE,23,0.0,0.0,83,0.00,,CLR,0.00,VWS V14.01,2013-05-03 07:01:00,
2013-05-03 03:06:00,48.8,43.9,30.28,NNE,23,0.0,1.0,83,0.00,,CLR,0.00,VWS V14.01,2013-05-03 07:06:00,
2013-05-03 03:11:00,48.7,43.8,30.28,NNE,23,0.0,1.0,83,0.00,,CLR,0.00,VWS V14.01,2013-05-03 07:11:00,
2013-05-03 03:16:00,48.6,43.7,30.28,NNE,23,0.0,1.0,83,0.00,,CLR,0.00,VWS V14.01,2013-05-03 07:16:00,
2013-05-03 03:21:00,48.5,43.9,30.28,East,87,1.0,1.0,84,0.00,,CLR,0.00,VWS V14.01,2013-05-03 07:21:00,
2013-05-03 03:26:00,48.5,43.9,30.28,East,96,0.0,3.0,84,0.00,,CLR,0.00,VWS V14.01,2013-05-03 07:26:00,
2013-05-03 03:31:00,48.4,43.8,30.28,NE,51,1.0,1.0,84,0.00,,CLR,0.00,VWS V14.01,2013-05-03 07:31:00,
2013-05-03 03:36:00,48.3,43.7,30.28,NE,49,1.0,2.0,84,0.00,,CLR,0.00,VWS V14.01,2013-05-03 07:36:00,
2013-05-03 03:41:00,48.3,44.0,30.29,ESE,115,1.0,2.0,85,0.00,,CLR,0.00,VWS V14.01,2013-05-03 07:41:00,
2013-05-03 03:46:00,48.1,43.8,30.29,East,92,0.0,2.0,85,0.00,,CLR,0.00,VWS V14.01,2013-05-03 07:46:00,
2013-05-03 03:51:00,47.9,43.6,30.29,NE,56,1.0,2.0,85,0.00,,CLR,0.00,VWS V14.01,2013-05-03 07:51:00,
2013-05-03 03:56:00,47.8,43.5,30.29,NE,41,0.0,2.0,85,0.00,,CLR,0.00,VWS V14.01,2013-05-03 07:56:00,
2013-05-03 04:01:00,47.6,43.3,30.29,NE,41,0.0,0.0,85,0.00,,CLR,0.00,VWS V14.01,2013-05-03 08:01:00,
2013-05-03 04:06:00,47.5,43.5,30.29,NNE,26,0.0,0.0,86,0.00,,CLR,0.00,VWS V14.01,2013-05-03 08:06:00,
2013-05-03 04:11:00,47.3,43.3,30.29,NNE,26,0.0,0.0,86,0.00,,CLR,0.00,VWS V14.01,2013-05-03 08:11:00,
2013-05-03 04:16:00,47.2,43.2,30.30,East,84,0.0,0.0,86,0.00,,CLR,0.00,VWS V14.01,2013-05-03 08:16:00,
2013-05-03 04:21:00,47.3,43.6,30.30,NE,36,2.0,4.0,87,0.00,,CLR,0.00,VWS V14.01,2013-05-03 08:21:00,
2013-05-03 04:26:00,47.3,43.3,30.30,NE,36,1.0,4.0,86,0.00,,CLR,0.00,VWS V14.01,2013-05-03 08:26:00,
2013-05-03 04:31:00,47.2,43.5,30.30,NE,35,0.0,1.0,87,0.00,,CLR,0.00,VWS V14.01,2013-05-03 08:31:00,
2013-05-03 04:36:00,47.3,43.6,30.30,NE,35,0.0,2.0,87,0.00,,CLR,0.00,VWS V14.01,2013-05-03 08:36:00,
2013-05-03 04:41:00,47.3,43.6,30.30,NE,40,0.0,2.0,87,0.00,,CLR,0.00,VWS V14.01,2013-05-03 08:41:00,
2013-05-03 04:46:00,47.1,43.4,30.30,NE,39,0.0,2.0,87,0.00,,CLR,0.00,VWS V14.01,2013-05-03 08:46:00,
2013-05-03 04:51:00,46.9,43.2,30.30,NE,44,0.0,2.0,87,0.00,,CLR,0.00,VWS V14.01,2013-05-03 08:51:00,
2013-05-03 04:56:00,46.8,43.1,30.30,East,86,0.0,2.0,87,0.00,,CLR,0.00,VWS V14.01,2013-05-03 08:56:00,
2013-05-03 05:01:00,46.6,42.9,30.30,East,89,0.0,0.0,87,0.00,,CLR,0.00,VWS V14.01,2013-05-03 09:01:00,
2013-05-03 05:06:00,46.5,43.1,30.31,East,84,0.0,0.0,88,0.00,,CLR,0.00,VWS V14.01,2013-05-03 09:06:00,
2013-05-03 05:11:00,46.4,43.0,30.31,NE,34,0.0,0.0,88,0.00,,CLR,0.00,VWS V14.01,2013-05-03 09:11:00,
2013-05-03 05:16:00,46.3,43.0,30.31,NE,34,0.0,0.0,88,0.00,,CLR,0.00,VWS V14.01,2013-05-03 09:16:00,
2013-05-03 05:21:00,46.0,42.7,30.31,NE,34,0.0,0.0,88,0.00,,CLR,0.00,VWS V14.01,2013-05-03 09:21:00,
2013-05-03 05:26:00,45.9,42.5,30.31,NE,34,0.0,0.0,88,0.00,,CLR,0.00,VWS V14.01,2013-05-03 09:26:00,
2013-05-03 05:31:00,45.9,42.8,30.31,East,82,0.0,0.0,89,0.00,,CLR,0.00,VWS V14.01,2013-05-03 09:31:00,
2013-05-03 05:36:00,46.0,43.0,30.31,East,84,0.0,0.0,89,0.00,,CLR,0.00,VWS V14.01,2013-05-03 09:36:00,
2013-05-03 05:41:00,46.2,43.1,30.31,East,84,2.0,4.0,89,0.00,,CLR,0.00,VWS V14.01,2013-05-03 09:41:00,
2013-05-03 05:46:00,46.3,43.2,30.32,NE,39,3.0,4.0,89,0.00,,CLR,0.00,VWS V14.01,2013-05-03 09:46:00,
2013-05-03 05:51:00,46.2,42.8,30.32,ENE,58,1.0,4.0,88,0.00,,CLR,0.00,VWS V14.01,2013-05-03 09:51:00,
2013-05-03 05:56:00,46.1,43.0,30.32,ESE,123,1.0,4.0,89,0.00,,CLR,0.00,VWS V14.01,2013-05-03 09:56:00,
2013-05-03 06:01:00,46.1,43.0,30.32,East,80,1.0,2.0,89,0.00,,CLR,0.00,VWS V14.01,2013-05-03 10:01:00,
2013-05-03 06:06:00,46.3,43.2,30.32,NE,49,1.0,3.0,89,0.00,,CLR,0.00,VWS V14.01,2013-05-03 10:06:00,
2013-05-03 06:11:00,46.7,43.6,30.32,NE,46,3.0,4.0,89,0.00,,CLR,0.00,VWS V14.01,2013-05-03 10:11:00,
2013-05-03 06:16:00,47.1,44.3,30.32,East,79,0.0,4.0,90,0.00,,CLR,0.00,VWS V14.01,2013-05-03 10:16:00,
2013-05-03 06:21:00,47.3,43.9,30.33,NE,46,2.0,4.0,88,0.00,,CLR,0.00,VWS V14.01,2013-05-03 10:21:00,
2013-05-03 06:26:00,47.4,44.0,30.33,ENE,59,0.0,4.0,88,0.00,,CLR,0.00,VWS V14.01,2013-05-03 10:26:00,
2013-05-03 06:31:00,47.4,43.7,30.33,SSE,156,1.0,1.0,87,0.00,,CLR,0.00,VWS V14.01,2013-05-03 10:31:00,
2013-05-03 06:36:00,47.7,44.0,30.33,NE,52,0.0,2.0,87,0.00,,CLR,0.00,VWS V14.01,2013-05-03 10:36:00,
2013-05-03 06:41:00,48.0,44.0,30.34,NE,41,1.0,2.0,86,0.00,,CLR,0.00,VWS V14.01,2013-05-03 10:41:00,
2013-05-03 06:46:00,48.4,44.4,30.34,NE,37,2.0,3.0,86,0.00,,CLR,0.00,VWS V14.01,2013-05-03 10:46:00,
2013-05-03 06:51:00,48.9,44.6,30.34,NE,37,0.0,3.0,85,0.00,,CLR,0.00,VWS V14.01,2013-05-03 10:51:00,
2013-05-03 06:56:00,49.6,45.0,30.34,NE,46,0.0,3.0,84,0.00,,CLR,0.00,VWS V14.01,2013-05-03 10:56:00,
2013-05-03 07:01:00,50.2,44.9,30.34,NNE,31,0.0,1.0,82,0.00,,CLR,0.00,VWS V14.01,2013-05-03 11:01:00,
2013-05-03 07:06:00,50.5,45.2,30.35,NNE,23,1.0,2.0,82,0.00,,CLR,0.00,VWS V14.01,2013-05-03 11:06:00,
2013-05-03 07:11:00,51.0,45.1,30.34,WNW,296,0.0,4.0,80,0.00,,CLR,0.00,VWS V14.01,2013-05-03 11:11:00,
2013-05-03 07:16:00,52.0,45.4,30.34,NNE,20,0.0,4.0,78,0.00,,CLR,0.00,VWS V14.01,2013-05-03 11:16:00,
2013-05-03 07:21:00,53.5,45.1,30.35,East,88,6.0,8.0,73,0.00,,CLR,0.00,VWS V14.01,2013-05-03 11:21:00,
2013-05-03 07:26:00,55.1,44.0,30.35,East,101,0.0,8.0,66,0.00,,CLR,0.00,VWS V14.01,2013-05-03 11:26:00,
2013-05-03 07:31:00,56.2,43.4,30.35,East,84,2.0,4.0,62,0.00,,CLR,0.00,VWS V14.01,2013-05-03 11:31:00,
2013-05-03 07:36:00,57.1,43.4,30.35,East,90,4.0,4.0,60,0.00,,CLR,0.00,VWS V14.01,2013-05-03 11:36:00,
2013-05-03 07:41:00,57.5,42.4,30.35,ESE,105,1.0,5.0,57,0.00,,CLR,0.00,VWS V14.01,2013-05-03 11:41:00,
2013-05-03 07:46:00,57.9,41.8,30.35,West,278,1.0,6.0,55,0.00,,CLR,0.00,VWS V14.01,2013-05-03 11:46:00,
2013-05-03 07:51:00,58.0,41.5,30.36,NE,52,3.0,7.0,54,0.00,,CLR,0.00,VWS V14.01,2013-05-03 11:51:00,
2013-05-03 07:56:00,57.9,40.4,30.35,SSW,203,3.0,10.0,52,0.00,,CLR,0.00,VWS V14.01,2013-05-03 11:56:00,
2013-05-03 08:01:00,58.0,41.5,30.36,East,100,2.0,2.0,54,0.00,,CLR,0.00,VWS V14.01,2013-05-03 12:01:00,
2013-05-03 08:06:00,58.3,40.8,30.36,East,81,4.0,7.0,52,0.00,,CLR,0.00,VWS V14.01,2013-05-03 12:06:00,
2013-05-03 08:11:00,58.6,41.5,30.36,East,82,2.0,7.0,53,0.00,,CLR,0.00,VWS V14.01,2013-05-03 12:11:00,
2013-05-03 08:16:00,58.7,41.1,30.36,East,89,1.0,7.0,52,0.00,,CLR,0.00,VWS V14.01,2013-05-03 12:16:00,
2013-05-03 08:21:00,58.7,41.1,30.37,SW,236,1.0,8.0,52,0.00,,CLR,0.00,VWS V14.01,2013-05-03 12:21:00,
2013-05-03 08:26:00,58.8,40.7,30.37,East,93,6.0,8.0,51,0.00,,CLR,0.00,VWS V14.01,2013-05-03 12:26:00,
2013-05-03 08:31:00,58.4,40.9,30.37,SSE,166,5.0,6.0,52,0.00,,CLR,0.00,VWS V14.01,2013-05-03 12:31:00,
2013-05-03 08:36:00,58.4,40.9,30.37,ESE,107,4.0,11.0,52,0.00,,CLR,0.00,VWS V14.01,2013-05-03 12:36:00,
2013-05-03 08:41:00,58.4,40.9,30.37,East,80,3.0,11.0,52,0.00,,CLR,0.00,VWS V14.01,2013-05-03 12:41:00,
2013-05-03 08:46:00,58.5,41.0,30.37,West,259,3.0,11.0,52,0.00,,CLR,0.00,VWS V14.01,2013-05-03 12:46:00,
2013-05-03 08:51:00,58.4,40.9,30.37,WNW,293,3.0,12.0,52,0.00,,CLR,0.00,VWS V14.01,2013-05-03 12:51:00,
2013-05-03 08:56:00,58.6,41.0,30.37,SW,222,3.0,12.0,52,0.00,,CLR,0.00,VWS V14.01,2013-05-03 12:56:00,
2013-05-03 09:01:00,58.8,41.7,30.37,ENE,70,4.0,5.0,53,0.00,,CLR,0.00,VWS V14.01,2013-05-03 13:01:00,
2013-05-03 09:06:00,58.9,41.8,30.37,SE,125,0.0,7.0,53,0.00,,CLR,0.00,VWS V14.01,2013-05-03 13:06:00,
2013-05-03 09:11:00,59.7,43.0,30.37,SW,228,4.0,7.0,54,0.00,,CLR,0.00,VWS V14.01,2013-05-03 13:11:00,
2013-05-03 09:16:00,59.7,41.6,30.37,SE,134,2.0,7.0,51,0.00,,CLR,0.00,VWS V14.01,2013-05-03 13:16:00,
2013-05-03 09:21:00,60.1,42.9,30.37,SW,233,2.0,7.0,53,0.00,,CLR,0.00,VWS V14.01,2013-05-03 13:21:00,
2013-05-03 09:26:00,60.6,43.4,30.37,West,273,2.0,7.0,53,0.00,,CLR,0.00,VWS V14.01,2013-05-03 13:26:00,
2013-05-03 09:31:00,60.8,42.6,30.37,SW,218,1.0,5.0,51,0.00,,CLR,0.00,VWS V14.01,2013-05-03 13:31:00,
2013-05-03 09:36:00,60.7,43.0,30.36,SW,231,3.0,8.0,52,0.00,,CLR,0.00,VWS V14.01,2013-05-03 13:36:00,
2013-05-03 09:41:00,61.1,42.8,30.37,ESE,104,3.0,8.0,51,0.00,,CLR,0.00,VWS V14.01,2013-05-03 13:41:00,
2013-05-03 09:46:00,61.2,42.4,30.36,SW,228,2.0,8.0,50,0.00,,CLR,0.00,VWS V14.01,2013-05-03 13:46:00,
2013-05-03 09:51:00,61.1,42.3,30.36,SSW,210,3.0,8.0,50,0.00,,CLR,0.00,VWS V14.01,2013-05-03 13:51:00,
2013-05-03 09:56:00,61.1,42.3,30.36,SW,215,0.0,8.0,50,0.00,,CLR,0.00,VWS V14.01,2013-05-03 13:56:00,
2013-05-03 10:01:00,61.4,42.1,30.36,SSW,205,2.0,4.0,49,0.00,,CLR,0.00,VWS V14.01,2013-05-03 14:01:00,
2013-05-03 10:06:00,61.7,43.4,30.36,WSW,248,6.0,8.0,51,0.00,,CLR,0.00,VWS V14.01,2013-05-03 14:06:00,
2013-05-03 10:11:00,62.0,42.6,30.36,SSE,155,2.0,8.0,49,0.00,,CLR,0.00,VWS V14.01,2013-05-03 14:11:00,
2013-05-03 10:16:00,62.1,44.3,30.36,SW,232,5.0,8.0,52,0.00,,CLR,0.00,VWS V14.01,2013-05-03 14:16:00,
2013-05-03 10:21:00,62.0,42.6,30.36,ESE,115,1.0,8.0,49,0.00,,CLR,0.00,VWS V14.01,2013-05-03 14:21:00,
2013-05-03 10:26:00,62.5,43.6,30.36,East,82,2.0,8.0,50,0.00,,CLR,0.00,VWS V14.01,2013-05-03 14:26:00,
2013-05-03 10:31:00,63.2,42.7,30.36,WSW,238,5.0,6.0,47,0.00,,CLR,0.00,VWS V14.01,2013-05-03 14:31:00,
2013-05-03 10:36:00,63.2,42.7,30.36,WSW,239,1.0,8.0,47,0.00,,CLR,0.00,VWS V14.01,2013-05-03 14:36:00,
2013-05-03 10:41:00,63.4,43.4,30.36,South,183,3.0,8.0,48,0.00,,CLR,0.00,VWS V14.01,2013-05-03 14:41:00,
2013-05-03 10:46:00,63.8,43.8,30.36,SSW,213,3.0,8.0,48,0.00,,CLR,0.00,VWS V14.01,2013-05-03 14:46:00,
2013-05-03 10:51:00,63.9,44.4,30.36,East,101,5.0,8.0,49,0.00,,CLR,0.00,VWS V14.01,2013-05-03 14:51:00,
2013-05-03 10:56:00,64.1,44.0,30.35,WNW,290,0.0,8.0,48,0.00,,CLR,0.00,VWS V14.01,2013-05-03 14:56:00,
2013-05-03 11:01:00,65.2,43.9,30.35,East,101,4.0,5.0,46,0.00,,CLR,0.00,VWS V14.01,2013-05-03 15:01:00,
2013-05-03 11:05:00,64.5,43.8,30.35,SW,219,0.0,9.0,47,0.00,,CLR,0.00,VWS V14.01,2013-05-03 15:05:00,
2013-05-03 11:11:00,64.7,44.0,30.35,West,262,3.0,9.0,47,0.00,,CLR,0.00,VWS V14.01,2013-05-03 15:11:00,
2013-05-03 11:15:00,64.5,43.8,30.35,SW,235,1.0,9.0,47,0.00,,CLR,0.00,VWS V14.01,2013-05-03 15:15:00,
2013-05-03 11:20:00,64.7,44.0,30.35,SW,231,5.0,9.0,47,0.00,,CLR,0.00,VWS V14.01,2013-05-03 15:20:00,
2013-05-03 11:25:00,65.1,44.4,30.35,NW,306,4.0,9.0,47,0.00,,CLR,0.00,VWS V14.01,2013-05-03 15:25:00,
2013-05-03 11:30:00,65.2,43.3,30.35,ENE,58,1.0,1.0,45,0.00,,CLR,0.00,VWS V14.01,2013-05-03 15:30:00,
2013-05-03 11:35:00,65.2,43.9,30.34,SW,219,3.0,4.0,46,0.00,,CLR,0.00,VWS V14.01,2013-05-03 15:35:00,
2013-05-03 11:40:00,65.6,43.7,30.34,SSW,201,2.0,6.0,45,0.00,,CLR,0.00,VWS V14.01,2013-05-03 15:40:00,
2013-05-03 11:45:00,66.4,43.8,30.34,SE,143,1.0,6.0,44,0.00,,CLR,0.00,VWS V14.01,2013-05-03 15:45:00,
2013-05-03 11:50:00,67.0,43.8,30.34,SSW,193,3.0,6.0,43,0.00,,CLR,0.00,VWS V14.01,2013-05-03 15:50:00,
2013-05-03 11:55:00,66.4,43.2,30.34,SW,231,0.0,9.0,43,0.00,,CLR,0.00,VWS V14.01,2013-05-03 15:55:00,
2013-05-03 12:00:00,66.8,45.4,30.34,ESE,103,0.0,1.0,46,0.00,,CLR,0.00,VWS V14.01,2013-05-03 16:00:00,
2013-05-03 12:05:00,66.7,44.1,30.34,WSW,238,5.0,10.0,44,0.00,,CLR,0.00,VWS V14.01,2013-05-03 16:05:00,
2013-05-03 12:10:00,66.6,45.2,30.33,ENE,75,4.0,10.0,46,0.00,,CLR,0.00,VWS V14.01,2013-05-03 16:10:00,
2013-05-03 12:15:00,67.0,43.8,30.33,SSW,203,6.0,10.0,43,0.00,,CLR,0.00,VWS V14.01,2013-05-03 16:15:00,
2013-05-03 12:20:00,66.4,43.8,30.33,West,267,3.0,10.0,44,0.00,,CLR,0.00,VWS V14.01,2013-05-03 16:20:00,
2013-05-03 12:25:00,67.0,45.6,30.33,East,89,1.0,10.0,46,0.00,,CLR,0.00,VWS V14.01,2013-05-03 16:25:00,
2013-05-03 12:30:00,67.7,45.0,30.33,ENE,68,2.0,4.0,44,0.00,,CLR,0.00,VWS V14.01,2013-05-03 16:30:00,
2013-05-03 12:35:00,67.6,43.1,30.32,West,280,5.0,9.0,41,0.00,,CLR,0.00,VWS V14.01,2013-05-03 16:35:00,
2013-05-03 12:40:00,67.4,43.5,30.32,West,278,5.0,13.0,42,0.00,,CLR,0.00,VWS V14.01,2013-05-03 16:40:00,
2013-05-03 12:45:00,67.7,43.2,30.32,SSW,201,5.0,13.0,41,0.00,,CLR,0.00,VWS V14.01,2013-05-03 16:45:00,
2013-05-03 12:50:00,67.6,43.7,30.32,SW,222,3.0,13.0,42,0.00,,CLR,0.00,VWS V14.01,2013-05-03 16:50:00,
2013-05-03 12:55:00,67.8,44.5,30.32,SW,214,13.0,13.0,43,0.00,,CLR,0.00,VWS V14.01,2013-05-03 16:55:00,
2013-05-03 13:00:00,68.3,45.0,30.31,SW,226,7.0,8.0,43,0.00,,CLR,0.00,VWS V14.01,2013-05-03 17:00:00,
2013-05-03 13:05:00,68.2,44.9,30.31,SW,219,8.0,13.0,43,0.00,,CLR,0.00,VWS V14.01,2013-05-03 17:05:00,
2013-05-03 13:10:00,68.3,43.7,30.31,SW,234,9.0,13.0,41,0.00,,CLR,0.00,VWS V14.01,2013-05-03 17:10:00,
2013-05-03 13:15:00,68.4,44.4,30.31,SW,223,4.0,13.0,42,0.00,,CLR,0.00,VWS V14.01,2013-05-03 17:15:00,
2013-05-03 13:20:00,68.8,44.2,30.31,SW,229,6.0,13.0,41,0.00,,CLR,0.00,VWS V14.01,2013-05-03 17:20:00,
2013-05-03 13:25:00,68.8,44.2,30.30,South,174,7.0,13.0,41,0.00,,CLR,0.00,VWS V14.01,2013-05-03 17:25:00,
2013-05-03 13:30:00,68.6,44.0,30.30,SW,219,3.0,3.0,41,0.00,,CLR,0.00,VWS V14.01,2013-05-03 17:30:00,
2013-05-03 13:35:00,69.2,43.9,30.30,SSW,202,5.0,10.0,40,0.00,,CLR,0.00,VWS V14.01,2013-05-03 17:35:00,
2013-05-03 13:40:00,69.7,45.0,30.30,East,92,3.0,10.0,41,0.00,,CLR,0.00,VWS V14.01,2013-05-03 17:40:00,
2013-05-03 13:45:00,70.3,44.9,30.29,ENE,63,3.0,10.0,40,0.00,,CLR,0.00,VWS V14.01,2013-05-03 17:45:00,
2013-05-03 13:50:00,70.0,43.2,30.29,SW,236,1.0,10.0,38,0.00,,CLR,0.00,VWS V14.01,2013-05-03 17:50:00,
2013-05-03 13:55:00,70.0,45.2,30.29,SW,218,7.0,12.0,41,0.00,,CLR,0.00,VWS V14.01,2013-05-03 17:55:00,
2013-05-03 14:00:00,70.4,45.0,30.29,SW,233,10.0,10.0,40,0.00,,CLR,0.00,VWS V14.01,2013-05-03 18:00:00,
2013-05-03 14:05:00,70.6,45.8,30.28,West,278,2.0,10.0,41,0.00,,CLR,0.00,VWS V14.01,2013-05-03 18:05:00,
2013-05-03 14:10:00,71.0,44.1,30.28,WSW,253,4.0,10.0,38,0.00,,CLR,0.00,VWS V14.01,2013-05-03 18:10:00,
2013-05-03 14:15:00,71.1,44.9,30.28,SSW,212,2.0,10.0,39,0.00,,CLR,0.00,VWS V14.01,2013-05-03 18:15:00,
2013-05-03 14:20:00,71.3,44.4,30.28,West,276,2.0,10.0,38,0.00,,CLR,0.00,VWS V14.01,2013-05-03 18:20:00,
2013-05-03 14:25:00,71.1,44.9,30.28,SW,226,6.0,12.0,39,0.00,,CLR,0.00,VWS V14.01,2013-05-03 18:25:00,
2013-05-03 14:30:00,70.9,43.4,30.28,SSE,162,3.0,4.0,37,0.00,,CLR,0.00,VWS V14.01,2013-05-03 18:30:00,
2013-05-03 14:35:00,71.1,44.9,30.28,SW,219,1.0,8.0,39,0.00,,CLR,0.00,VWS V14.01,2013-05-03 18:35:00,
2013-05-03 14:40:00,71.4,44.5,30.27,SW,224,8.0,8.0,38,0.00,,CLR,0.00,VWS V14.01,2013-05-03 18:40:00,
2013-05-03 14:45:00,71.4,44.5,30.27,East,84,3.0,9.0,38,0.00,,CLR,0.00,VWS V14.01,2013-05-03 18:45:00,
2013-05-03 14:50:00,71.5,43.9,30.27,East,88,2.0,9.0,37,0.00,,CLR,0.00,VWS V14.01,2013-05-03 18:50:00,
2013-05-03 14:55:00,71.7,44.8,30.27,WNW,284,3.0,9.0,38,0.00,,CLR,0.00,VWS V14.01,2013-05-03 18:55:00,
2013-05-03 15:00:00,71.9,44.9,30.27,SSW,208,1.0,1.0,38,0.00,,CLR,0.00,VWS V14.01,2013-05-03 19:00:00,
2013-05-03 15:05:00,72.6,44.1,30.26,South,179,2.0,5.0,36,0.00,,CLR,0.00,VWS V14.01,2013-05-03 19:05:00,
2013-05-03 15:10:00,72.3,44.6,30.26,SSW,198,4.0,8.0,37,0.00,,CLR,0.00,VWS V14.01,2013-05-03 19:10:00,
2013-05-03 15:15:00,72.2,43.8,30.26,East,90,1.0,9.0,36,0.00,,CLR,0.00,VWS V14.01,2013-05-03 19:15:00,
2013-05-03 15:20:00,71.8,44.2,30.26,South,190,3.0,11.0,37,0.00,,CLR,0.00,VWS V14.01,2013-05-03 19:20:00,
2013-05-03 15:25:00,72.4,44.0,30.26,South,188,1.0,11.0,36,0.00,,CLR,0.00,VWS V14.01,2013-05-03 19:25:00,
2013-05-03 15:30:00,72.4,43.2,30.26,ESE,113,3.0,6.0,35,0.00,,CLR,0.00,VWS V14.01,2013-05-03 19:30:00,
2013-05-03 15:35:00,72.2,44.5,30.25,SSW,197,2.0,8.0,37,0.00,,CLR,0.00,VWS V14.01,2013-05-03 19:35:00,
2013-05-03 15:40:00,72.1,43.7,30.25,SW,236,3.0,10.0,36,0.00,,CLR,0.00,VWS V14.01,2013-05-03 19:40:00,
2013-05-03 15:45:00,72.2,43.8,30.25,WSW,250,0.0,10.0,36,0.00,,CLR,0.00,VWS V14.01,2013-05-03 19:45:00,
2013-05-03 15:50:00,72.9,45.1,30.25,NE,56,2.0,10.0,37,0.00,,CLR,0.00,VWS V14.01,2013-05-03 19:50:00,
2013-05-03 15:55:00,72.9,43.7,30.25,SSE,165,4.0,11.0,35,0.00,,CLR,0.00,VWS V14.01,2013-05-03 19:55:00,
2013-05-03 16:00:00,72.5,43.3,30.25,ESE,114,2.0,3.0,35,0.00,,CLR,0.00,VWS V14.01,2013-05-03 20:00:00,
2013-05-03 16:05:00,72.2,43.1,30.25,SW,229,7.0,14.0,35,0.00,,CLR,0.00,VWS V14.01,2013-05-03 20:05:00,
2013-05-03 16:10:00,71.8,43.4,30.24,WSW,253,4.0,14.0,36,0.00,,CLR,0.00,VWS V14.01,2013-05-03 20:10:00,
2013-05-03 16:15:00,72.0,43.6,30.24,SW,214,5.0,14.0,36,0.00,,CLR,0.00,VWS V14.01,2013-05-03 20:15:00,
2013-05-03 16:20:00,72.3,43.9,30.24,SSW,200,3.0,14.0,36,0.00,,CLR,0.00,VWS V14.01,2013-05-03 20:20:00,
2013-05-03 16:25:00,72.4,42.5,30.24,ESE,121,1.0,14.0,34,0.00,,CLR,0.00,VWS V14.01,2013-05-03 20:25:00,
2013-05-03 16:30:00,72.4,43.2,30.24,NE,46,2.0,2.0,35,0.00,,CLR,0.00,VWS V14.01,2013-05-03 20:30:00,
2013-05-03 16:35:00,72.7,42.7,30.24,South,172,5.0,7.0,34,0.00,,CLR,0.00,VWS V14.01,2013-05-03 20:35:00,
2013-05-03 16:40:00,73.0,42.2,30.23,ESE,117,7.0,7.0,33,0.00,,CLR,0.00,VWS V14.01,2013-05-03 20:40:00,
2013-05-03 16:45:00,72.8,41.3,30.24,SSE,148,5.0,11.0,32,0.00,,CLR,0.00,VWS V14.01,2013-05-03 20:45:00,
2013-05-03 16:50:00,72.0,40.6,30.24,ESE,105,2.0,11.0,32,0.00,,CLR,0.00,VWS V14.01,2013-05-03 20:50:00,
2013-05-03 16:55:00,72.3,41.6,30.23,SSW,194,8.0,11.0,33,0.00,,CLR,0.00,VWS V14.01,2013-05-03 20:55:00,
2013-05-03 17:00:00,72.4,42.5,30.23,West,259,3.0,3.0,34,0.00,,CLR,0.00,VWS V14.01,2013-05-03 21:00:00,
2013-05-03 17:05:00,72.0,41.3,30.23,WSW,240,3.0,10.0,33,0.00,,CLR,0.00,VWS V14.01,2013-05-03 21:05:00,
2013-05-03 17:10:00,71.8,42.0,30.23,SW,229,3.0,10.0,34,0.00,,CLR,0.00,VWS V14.01,2013-05-03 21:10:00,
2013-05-03 17:15:00,71.9,42.8,30.23,WSW,238,6.0,10.0,35,0.00,,CLR,0.00,VWS V14.01,2013-05-03 21:15:00,
2013-05-03 17:20:00,71.6,42.5,30.23,SSW,201,2.0,10.0,35,0.00,,CLR,0.00,VWS V14.01,2013-05-03 21:20:00,
2013-05-03 17:25:00,71.8,42.7,30.23,SSW,197,5.0,10.0,35,0.00,,CLR,0.00,VWS V14.01,2013-05-03 21:25:00,
2013-05-03 17:30:00,71.7,42.6,30.23,West,277,3.0,4.0,35,0.00,,CLR,0.00,VWS V14.01,2013-05-03 21:30:00,
2013-05-03 17:35:00,71.8,42.7,30.23,SW,228,6.0,10.0,35,0.00,,CLR,0.00,VWS V14.01,2013-05-03 21:35:00,
2013-05-03 17:40:00,71.8,42.0,30.23,SW,224,2.0,10.0,34,0.00,,CLR,0.00,VWS V14.01,2013-05-03 21:40:00,
2013-05-03 17:45:00,72.0,42.9,30.23,SE,139,1.0,10.0,35,0.00,,CLR,0.00,VWS V14.01,2013-05-03 21:45:00,
2013-05-03 17:50:00,72.0,42.1,30.23,SSW,203,2.0,10.0,34,0.00,,CLR,0.00,VWS V14.01,2013-05-03 21:50:00,
2013-05-03 17:55:00,72.2,43.1,30.22,ESE,120,1.0,10.0,35,0.00,,CLR,0.00,VWS V14.01,2013-05-03 21:55:00,
2013-05-03 18:00:00,72.3,42.4,30.22,East,79,1.0,3.0,34,0.00,,CLR,0.00,VWS V14.01,2013-05-03 22:00:00,
2013-05-03 18:05:00,72.2,41.5,30.23,WSW,256,1.0,6.0,33,0.00,,CLR,0.00,VWS V14.01,2013-05-03 22:05:00,
2013-05-03 18:10:00,72.4,42.5,30.23,NW,311,2.0,6.0,34,0.00,,CLR,0.00,VWS V14.01,2013-05-03 22:10:00,
2013-05-03 18:15:00,72.2,41.5,30.23,WSW,252,3.0,8.0,33,0.00,,CLR,0.00,VWS V14.01,2013-05-03 22:15:00,
2013-05-03 18:20:00,72.0,42.1,30.22,SW,236,0.0,8.0,34,0.00,,CLR,0.00,VWS V14.01,2013-05-03 22:20:00,
2013-05-03 18:25:00,72.2,42.3,30.23,NE,39,1.0,8.0,34,0.00,,CLR,0.00,VWS V14.01,2013-05-03 22:25:00,
2013-05-03 18:30:00,72.4,43.2,30.23,SW,228,2.0,3.0,35,0.00,,CLR,0.00,VWS V14.01,2013-05-03 22:30:00,
2013-05-03 18:35:00,72.2,43.1,30.23,SW,215,3.0,5.0,35,0.00,,CLR,0.00,VWS V14.01,2013-05-03 22:35:00,
2013-05-03 18:40:00,71.7,41.9,30.23,SW,231,1.0,10.0,34,0.00,,CLR,0.00,VWS V14.01,2013-05-03 22:40:00,
2013-05-03 18:45:00,71.6,41.8,30.22,SW,231,4.0,10.0,34,0.00,,CLR,0.00,VWS V14.01,2013-05-03 22:45:00,
2013-05-03 18:50:00,71.4,43.1,30.22,ENE,69,2.0,10.0,36,0.00,,CLR,0.00,VWS V14.01,2013-05-03 22:50:00,
2013-05-03 18:55:00,71.2,42.9,30.23,SW,226,1.0,10.0,36,0.00,,CLR,0.00,VWS V14.01,2013-05-03 22:55:00,
2013-05-03 19:00:00,71.1,42.8,30.23,SW,215,3.0,3.0,36,0.00,,CLR,0.00,VWS V14.01,2013-05-03 23:00:00,
2013-05-03 19:05:00,70.9,42.6,30.23,SSW,210,6.0,7.0,36,0.00,,CLR,0.00,VWS V14.01,2013-05-03 23:05:00,
2013-05-03 19:10:00,70.6,43.1,30.23,WSW,243,2.0,9.0,37,0.00,,CLR,0.00,VWS V14.01,2013-05-03 23:10:00,
2013-05-03 19:15:00,70.3,42.8,30.23,SW,225,6.0,9.0,37,0.00,,CLR,0.00,VWS V14.01,2013-05-03 23:15:00,
2013-05-03 19:20:00,70.1,43.3,30.24,SSE,160,4.0,9.0,38,0.00,,CLR,0.00,VWS V14.01,2013-05-03 23:20:00,
2013-05-03 19:25:00,69.6,42.9,30.24,SW,229,9.0,10.0,38,0.00,,CLR,0.00,VWS V14.01,2013-05-03 23:25:00,
2013-05-03 19:30:00,69.1,42.5,30.24,SSW,204,8.0,9.0,38,0.00,,CLR,0.00,VWS V14.01,2013-05-03 23:30:00,
2013-05-03 19:35:00,68.7,42.1,30.24,West,269,2.0,11.0,38,0.00,,CLR,0.00,VWS V14.01,2013-05-03 23:35:00,
2013-05-03 19:40:00,68.3,41.7,30.24,South,185,4.0,11.0,38,0.00,,CLR,0.00,VWS V14.01,2013-05-03 23:40:00,
2013-05-03 19:45:00,67.9,41.4,30.24,SW,219,4.0,11.0,38,0.00,,CLR,0.00,VWS V14.01,2013-05-03 23:45:00,
2013-05-03 19:50:00,67.5,41.7,30.24,SSW,212,2.0,11.0,39,0.00,,CLR,0.00,VWS V14.01,2013-05-03 23:50:00,
2013-05-03 19:55:00,67.2,40.8,30.24,NE,51,1.0,13.0,38,0.00,,CLR,0.00,VWS V14.01,2013-05-03 23:55:00,
2013-05-03 20:00:00,66.9,41.2,30.24,SW,232,5.0,5.0,39,0.00,,CLR,0.00,VWS V14.01,2013-05-04 00:00:00,
2013-05-03 20:05:00,66.8,41.1,30.24,SW,218,4.0,13.0,39,0.00,,CLR,0.00,VWS V14.01,2013-05-04 00:05:00,
2013-05-03 20:10:00,66.6,40.2,30.24,SW,236,2.0,13.0,38,0.00,,CLR,0.00,VWS V14.01,2013-05-04 00:10:00,
2013-05-03 20:15:00,66.4,40.7,30.25,SW,215,5.0,13.0,39,0.00,,CLR,0.00,VWS V14.01,2013-05-04 00:15:00,
2013-05-03 20:20:00,66.2,41.2,30.25,WSW,238,7.0,15.0,40,0.00,,CLR,0.00,VWS V14.01,2013-05-04 00:20:00,
2013-05-03 20:25:00,65.9,40.9,30.25,NNE,19,2.0,15.0,40,0.00,,CLR,0.00,VWS V14.01,2013-05-04 00:25:00,
2013-05-03 20:30:00,65.7,41.4,30.25,South,181,3.0,6.0,41,0.00,,CLR,0.00,VWS V14.01,2013-05-04 00:30:00,
2013-05-03 20:35:00,65.5,41.2,30.25,WSW,256,1.0,12.0,41,0.00,,CLR,0.00,VWS V14.01,2013-05-04 00:35:00,
2013-05-03 20:40:00,65.3,41.6,30.25,East,81,5.0,12.0,42,0.00,,CLR,0.00,VWS V14.01,2013-05-04 00:40:00,
2013-05-03 20:45:00,65.0,41.4,30.25,WSW,240,5.0,12.0,42,0.00,,CLR,0.00,VWS V14.01,2013-05-04 00:45:00,
2013-05-03 20:50:00,64.8,41.2,30.25,SW,236,4.0,12.0,42,0.00,,CLR,0.00,VWS V14.01,2013-05-04 00:50:00,
2013-05-03 20:55:00,64.7,41.1,30.25,West,262,1.0,13.0,42,0.00,,CLR,0.00,VWS V14.01,2013-05-04 00:55:00,
2013-05-03 21:00:00,64.5,40.9,30.26,South,187,1.0,2.0,42,0.00,,CLR,0.00,VWS V14.01,2013-05-04 01:00:00,
2013-05-03 21:05:00,64.2,40.7,30.26,West,264,5.0,9.0,42,0.00,,CLR,0.00,VWS V14.01,2013-05-04 01:05:00,
2013-05-03 21:10:00,64.0,40.5,30.27,WSW,257,6.0,10.0,42,0.00,,CLR,0.00,VWS V14.01,2013-05-04 01:10:00,
2013-05-03 21:15:00,63.8,40.9,30.27,SW,233,3.0,10.0,43,0.00,,CLR,0.00,VWS V14.01,2013-05-04 01:15:00,
2013-05-03 21:20:00,63.6,40.7,30.27,SW,229,7.0,10.0,43,0.00,,CLR,0.00,VWS V14.01,2013-05-04 01:20:00,
2013-05-03 21:25:00,63.4,40.5,30.27,SW,232,2.0,11.0,43,0.00,,CLR,0.00,VWS V14.01,2013-05-04 01:25:00,
2013-05-03 21:30:00,63.1,40.3,30.27,South,181,5.0,7.0,43,0.00,,CLR,0.00,VWS V14.01,2013-05-04 01:30:00,
2013-05-03 21:35:00,63.0,40.8,30.27,ESE,115,1.0,19.0,44,0.00,,CLR,0.00,VWS V14.01,2013-05-04 01:35:00,
2013-05-03 21:40:00,62.7,40.5,30.28,SW,218,4.0,19.0,44,0.00,,CLR,0.00,VWS V14.01,2013-05-04 01:40:00,
2013-05-03 21:45:00,62.5,40.3,30.28,WSW,240,8.0,19.0,44,0.00,,CLR,0.00,VWS V14.01,2013-05-04 01:45:00,
2013-05-03 21:50:00,62.3,40.1,30.28,South,187,2.0,19.0,44,0.00,,CLR,0.00,VWS V14.01,2013-05-04 01:50:00,
2013-05-03 21:55:00,62.1,39.4,30.28,South,173,3.0,19.0,43,0.00,,CLR,0.00,VWS V14.01,2013-05-04 01:55:00,
2013-05-03 22:00:00,62.0,38.7,30.28,SW,233,7.0,7.0,42,0.00,,CLR,0.00,VWS V14.01,2013-05-04 02:00:00,
2013-05-03 22:05:00,61.8,37.9,30.28,SSE,156,5.0,10.0,41,0.00,,CLR,0.00,VWS V14.01,2013-05-04 02:05:00,
2013-05-03 22:10:00,61.6,37.7,30.28,SW,228,4.0,11.0,41,0.00,,CLR,0.00,VWS V14.01,2013-05-04 02:10:00,
2013-05-03 22:15:00,61.4,38.1,30.29,SE,127,1.0,11.0,42,0.00,,CLR,0.00,VWS V14.01,2013-05-04 02:15:00,
2013-05-03 22:20:00,61.4,38.1,30.29,NNE,22,1.0,11.0,42,0.00,,CLR,0.00,VWS V14.01,2013-05-04 02:20:00,
2013-05-03 22:25:00,61.1,37.9,30.29,NE,43,3.0,11.0,42,0.00,,CLR,0.00,VWS V14.01,2013-05-04 02:25:00,
2013-05-03 22:30:00,60.9,37.1,30.29,WSW,246,2.0,7.0,41,0.00,,CLR,0.00,VWS V14.01,2013-05-04 02:30:00,
2013-05-03 22:35:00,60.7,36.9,30.29,SW,225,6.0,7.0,41,0.00,,CLR,0.00,VWS V14.01,2013-05-04 02:35:00,
2013-05-03 22:40:00,60.5,36.7,30.29,West,272,2.0,9.0,41,0.00,,CLR,0.00,VWS V14.01,2013-05-04 02:40:00,
2013-05-03 22:45:00,60.5,36.1,30.29,NNE,30,2.0,12.0,40,0.00,,CLR,0.00,VWS V14.01,2013-05-04 02:45:00,
2013-05-03 22:50:00,60.4,36.6,30.29,SW,235,1.0,12.0,41,0.00,,CLR,0.00,VWS V14.01,2013-05-04 02:50:00,
2013-05-03 22:55:00,60.1,37.0,30.29,West,260,1.0,12.0,42,0.00,,CLR,0.00,VWS V14.01,2013-05-04 02:55:00,
2013-05-03 23:00:00,59.7,36.6,30.29,East,101,3.0,3.0,42,0.00,,CLR,0.00,VWS V14.01,2013-05-04 03:00:00,
2013-05-03 23:05:00,59.7,36.6,30.29,SSW,194,3.0,8.0,42,0.00,,CLR,0.00,VWS V14.01,2013-05-04 03:05:00,
2013-05-03 23:10:00,59.5,36.4,30.29,SSW,205,9.0,12.0,42,0.00,,CLR,0.00,VWS V14.01,2013-05-04 03:10:00,
2013-05-03 23:15:00,59.3,36.8,30.29,SW,222,6.0,12.0,43,0.00,,CLR,0.00,VWS V14.01,2013-05-04 03:15:00,
2013-05-03 23:20:00,59.2,36.7,30.29,West,260,0.0,12.0,43,0.00,,CLR,0.00,VWS V14.01,2013-05-04 03:20:00,
2013-05-03 23:25:00,58.9,36.5,30.30,SW,225,6.0,12.0,43,0.00,,CLR,0.00,VWS V14.01,2013-05-04 03:25:00,
2013-05-03 23:30:00,58.7,36.3,30.30,SE,132,0.0,1.0,43,0.00,,CLR,0.00,VWS V14.01,2013-05-04 03:30:00,
2013-05-03 23:35:00,58.5,36.1,30.30,ESE,110,3.0,4.0,43,0.00,,CLR,0.00,VWS V14.01,2013-05-04 03:35:00,
2013-05-03 23:40:00,58.3,36.5,30.30,West,281,0.0,4.0,44,0.00,,CLR,0.00,VWS V14.01,2013-05-04 03:40:00,
2013-05-03 23:45:00,58.1,36.3,30.30,SW,233,3.0,4.0,44,0.00,,CLR,0.00,VWS V14.01,2013-05-04 03:45:00,
2013-05-03 23:50:00,58.2,36.4,30.30,SSW,210,1.0,8.0,44,0.00,,CLR,0.00,VWS V14.01,2013-05-04 03:50:00,
2013-05-03 23:55:00,58.1,36.3,30.30,West,269,0.0,8.0,44,0.00,,CLR,0.00,VWS V14.01,2013-05-04 03:55:00,